Time;durP1;ratioP1;P1;durP2;ratioP2;P2;SDS_P1;SDS_P2;PMS_P1;PMS_P2;Temp;Humidity;BMP_temperature;BMP_pressure;BME280_temperature;BME280_humidity;BME280_pressure;Samples;Min_cycle;Max_cycle;Signal;HPM_P1;HPM_P2
2022/08/09 00:01:14;;;;;;;6.20;4.43;;;;;;;15.44;87.05;102576.84;5071598;28;20059;-83
2022/08/09 00:03:39;;;;;;;9.07;4.63;;;;;;;15.35;87.71;102565.63;5070946;28;20636;-84
2022/08/09 00:06:05;;;;;;;8.90;4.67;;;;;;;15.32;88.28;102566.13;5071782;28;20673;-84
2022/08/09 00:08:30;;;;;;;8.27;4.40;;;;;;;15.34;87.53;102564.00;5050893;28;20027;-84
2022/08/09 00:10:55;;;;;;;7.57;4.67;;;;;;;15.31;88.52;102569.09;5070530;28;20021;-84
2022/08/09 00:13:21;;;;;;;7.70;4.70;;;;;;;15.28;88.56;102567.69;5071672;28;20021;-83
2022/08/09 00:15:46;;;;;;;6.78;4.03;;;;;;;15.31;87.28;102569.09;5071706;28;20533;-83
2022/08/09 00:18:11;;;;;;;5.50;3.83;;;;;;;15.29;87.52;102564.75;5070655;28;20030;-83
2022/08/09 00:20:37;;;;;;;6.20;4.10;;;;;;;15.25;87.71;102565.47;5070929;28;20388;-84
2022/08/09 00:23:02;;;;;;;5.33;4.57;;;;;;;15.20;88.81;102560.03;5068572;28;20127;-84
2022/08/09 00:25:28;;;;;;;6.18;4.00;;;;;;;15.21;88.27;102567.84;5071074;28;20029;-84
2022/08/09 00:27:53;;;;;;;5.17;4.30;;;;;;;15.17;89.22;102566.72;5071665;28;20093;-84
2022/08/09 00:30:18;;;;;;;9.07;4.37;;;;;;;15.08;88.88;102566.31;5068918;28;20028;-84
2022/08/09 00:32:44;;;;;;;4.93;4.17;;;;;;;15.11;88.75;102573.91;5055682;28;20041;-84
2022/08/09 00:35:09;;;;;;;6.83;4.60;;;;;;;15.09;89.55;102564.44;5069814;28;20432;-85
2022/08/09 00:37:34;;;;;;;6.73;4.13;;;;;;;15.05;89.84;102561.41;5070958;28;20029;-84
2022/08/09 00:40:00;;;;;;;7.27;4.70;;;;;;;15.01;89.96;102562.13;5062247;28;20037;-83
2022/08/09 00:42:27;;;;;;;4.63;4.20;;;;;;;14.95;89.36;102564.78;5052109;28;20774;-83
2022/08/09 00:44:53;;;;;;;7.23;4.53;;;;;;;14.87;90.70;102562.47;5070455;28;20023;-84
2022/08/09 00:47:18;;;;;;;8.07;4.60;;;;;;;14.89;90.49;102568.44;5068936;28;20286;-84
2022/08/09 00:49:44;;;;;;;8.85;4.20;;;;;;;14.91;89.53;102570.88;5070343;28;20031;-84
2022/08/09 00:52:09;;;;;;;6.67;4.07;;;;;;;14.81;89.06;102552.63;5070973;28;20034;-84
2022/08/09 00:54:34;;;;;;;6.20;4.00;;;;;;;14.78;88.80;102562.06;5070998;28;20021;-84
2022/08/09 00:57:00;;;;;;;6.37;4.10;;;;;;;14.86;88.74;102568.13;5069232;28;20150;-83
2022/08/09 00:59:25;;;;;;;6.73;4.50;;;;;;;14.86;89.65;102568.91;5068688;28;20025;-84
2022/08/09 01:01:51;;;;;;;5.93;4.13;;;;;;;14.88;88.99;102564.09;5068680;28;20025;-84
2022/08/09 01:04:53;;;;;;;7.73;4.30;;;;;;;14.87;87.98;102575.97;5069346;28;20287;-85
2022/08/09 01:07:26;;;;;;;4.85;3.80;;;;;;;14.80;88.26;102568.03;5070663;28;20479;-84
2022/08/09 01:09:57;;;;;;;5.47;4.00;;;;;;;14.82;87.86;102567.75;5069073;28;20055;-84
2022/08/09 01:12:48;;;;;;;4.93;3.95;;;;;;;14.76;87.81;102566.06;5070627;28;20407;-84
2022/08/09 01:15:20;;;;;;;6.68;4.13;;;;;;;14.73;89.79;102566.53;5068998;28;21999;-84
2022/08/09 01:17:54;;;;;;;6.47;4.00;;;;;;;14.62;88.64;102560.13;5070182;28;20029;-84
2022/08/09 01:20:57;;;;;;;5.13;4.07;;;;;;;14.63;89.36;102575.25;5067784;28;20298;-84
2022/08/09 01:23:22;;;;;;;4.38;3.70;;;;;;;14.59;89.13;102571.38;5065440;28;20039;-84
2022/08/09 01:26:29;;;;;;;5.63;3.87;;;;;;;14.50;88.76;102570.97;5066644;28;20020;-84
2022/08/09 01:28:56;;;;;;;7.43;4.50;;;;;;;14.42;91.37;102580.25;5070131;28;20048;-85
2022/08/09 01:31:26;;;;;;;5.65;4.47;;;;;;;14.42;92.22;102574.06;5068483;28;20123;-85
2022/08/09 01:33:55;;;;;;;6.88;4.20;;;;;;;14.35;91.81;102560.69;5048256;28;20495;-84
2022/08/09 01:36:24;;;;;;;8.30;4.85;;;;;;;14.34;92.33;102567.97;5060181;28;20111;-84
2022/08/09 01:38:51;;;;;;;5.78;4.75;;;;;;;14.35;92.92;102569.63;5073268;28;20468;-84
2022/08/09 01:41:25;;;;;;;5.13;4.53;;;;;;;14.27;92.87;102563.78;5072405;28;20048;-83
2022/08/09 01:43:53;;;;;;;9.23;4.75;;;;;;;14.27;93.10;102561.09;5067347;28;20025;-84
2022/08/09 01:46:28;;;;;;;6.38;4.93;;;;;;;14.23;93.24;102564.28;5054698;28;20033;-84
2022/08/09 01:48:58;;;;;;;10.50;5.50;;;;;;;14.18;93.75;102564.16;5070180;28;20407;-84
2022/08/09 01:51:25;;;;;;;9.20;5.40;;;;;;;14.14;93.56;102559.50;5069928;28;20316;-84
2022/08/09 01:53:54;;;;;;;6.38;5.55;;;;;;;14.15;93.96;102558.44;5068830;28;20043;-84
2022/08/09 01:56:21;;;;;;;11.77;5.47;;;;;;;14.16;93.77;102565.47;5070325;28;20048;-84
2022/08/09 01:58:50;;;;;;;7.53;4.88;;;;;;;14.12;92.22;102564.31;5068539;28;20025;-84
2022/08/09 02:01:17;;;;;;;6.40;4.70;;;;;;;14.12;92.03;102569.69;5066154;28;20613;-84
2022/08/09 02:03:44;;;;;;;9.65;4.68;;;;;;;14.11;92.11;102570.75;5069974;28;20078;-84
2022/08/09 02:06:11;;;;;;;7.57;5.03;;;;;;;14.08;93.17;102583.66;5071645;28;20031;-84
2022/08/09 02:08:41;;;;;;;7.18;4.97;;;;;;;14.01;94.19;102571.38;5067764;28;20025;-83
2022/08/09 02:11:07;;;;;;;8.85;5.03;;;;;;;14.00;93.60;102575.13;5050069;28;20120;-83
2022/08/09 02:13:33;;;;;;;5.13;4.30;;;;;;;13.98;92.92;102582.63;5072332;28;20242;-84
2022/08/09 02:16:02;;;;;;;4.83;4.27;;;;;;;13.96;93.46;102580.16;5074541;28;20267;-83
2022/08/09 02:18:30;;;;;;;5.95;4.30;;;;;;;13.95;93.04;102577.72;5073965;28;20027;-83
2022/08/09 02:21:09;;;;;;;7.57;4.35;;;;;;;13.90;93.28;102573.88;5072950;28;20177;-83
2022/08/09 02:23:39;;;;;;;5.57;5.07;;;;;;;13.90;94.43;102584.63;5073491;28;20036;-84
2022/08/09 02:26:06;;;;;;;6.55;4.68;;;;;;;13.89;93.99;102582.16;5073775;28;20571;-84
2022/08/09 02:28:36;;;;;;;7.78;5.45;;;;;;;13.89;93.78;102574.06;5072756;28;20048;-85
2022/08/09 02:31:09;;;;;;;9.43;5.60;;;;;;;13.80;94.48;102557.47;5070610;28;20044;-84
2022/08/09 02:33:40;;;;;;;8.40;5.72;;;;;;;13.74;95.98;102574.59;5072043;28;20035;-84
2022/08/09 02:36:09;;;;;;;9.43;5.78;;;;;;;13.71;95.96;102569.66;5072235;28;20085;-85
2022/08/09 02:38:43;;;;;;;7.63;5.37;;;;;;;13.76;94.85;102576.00;5070231;28;20455;-84
2022/08/09 02:41:12;;;;;;;11.53;5.30;;;;;;;13.63;95.64;102558.19;5072041;28;20298;-84
2022/08/09 02:43:41;;;;;;;7.43;5.60;;;;;;;13.69;95.96;102574.47;5073115;28;20059;-84
2022/08/09 02:46:09;;;;;;;6.05;5.45;;;;;;;13.67;95.53;102573.88;5055333;28;20112;-84
2022/08/09 02:48:36;;;;;;;8.45;5.38;;;;;;;13.61;95.72;102576.47;5072213;28;20496;-84
2022/08/09 02:51:06;;;;;;;8.88;5.40;;;;;;;13.51;95.67;102557.41;5072873;28;20115;-84
2022/08/09 02:53:35;;;;;;;9.82;5.80;;;;;;;13.52;97.19;102564.41;5073058;28;20046;-84
2022/08/09 02:56:03;;;;;;;7.65;5.65;;;;;;;13.47;97.38;102557.06;5072774;28;20020;-84
2022/08/09 02:58:30;;;;;;;7.57;5.57;;;;;;;13.45;96.75;102547.56;5073010;28;20075;-83
2022/08/09 03:00:57;;;;;;;9.15;5.70;;;;;;;13.46;96.57;102563.50;5070400;28;20028;-84
2022/08/09 03:03:23;;;;;;;10.70;5.30;;;;;;;13.41;96.32;102546.41;5071763;28;20040;-84
2022/08/09 03:05:50;;;;;;;7.47;5.60;;;;;;;13.47;96.45;102565.13;5070486;28;20310;-84
2022/08/09 03:08:17;;;;;;;6.72;5.90;;;;;;;13.45;97.58;102571.78;5073272;28;20055;-84
2022/08/09 03:10:43;;;;;;;10.98;5.70;;;;;;;13.41;97.54;102559.88;5071057;28;20024;-84
2022/08/09 03:13:09;;;;;;;8.10;5.43;;;;;;;13.42;98.03;102566.91;5073003;28;20078;-84
2022/08/09 03:15:36;;;;;;;9.70;6.53;;;;;;;13.38;98.37;102566.50;5071557;28;20028;-85
2022/08/09 03:18:02;;;;;;;9.90;5.82;;;;;;;13.31;98.06;102558.53;5072561;28;20024;-84
2022/08/09 03:20:28;;;;;;;9.57;6.10;;;;;;;13.31;98.87;102566.63;5072459;28;20025;-84
2022/08/09 03:22:54;;;;;;;6.75;6.05;;;;;;;13.28;98.17;102566.28;5072728;28;20067;-85
2022/08/09 03:25:20;;;;;;;7.95;6.55;;;;;;;13.25;99.16;102558.66;5054283;28;20052;-85
2022/08/09 03:27:54;;;;;;;8.77;6.30;;;;;;;13.12;98.17;102547.06;5070416;28;20016;-84
2022/08/09 03:30:19;;;;;;;10.02;7.32;;;;;;;13.22;99.49;102564.50;5069350;28;20024;-84
2022/08/09 03:32:45;;;;;;;9.63;6.43;;;;;;;13.21;98.82;102557.47;5071890;28;20048;-84
2022/08/09 03:35:10;;;;;;;10.43;6.28;;;;;;;13.18;99.15;102550.69;5072866;28;20437;-84
2022/08/09 03:37:39;;;;;;;8.47;6.13;;;;;;;13.14;98.33;102552.22;5071436;28;20039;-84
2022/08/09 03:40:05;;;;;;;9.43;6.57;;;;;;;13.11;100.00;102561.56;5072235;28;20028;-84
2022/08/09 03:42:31;;;;;;;7.85;6.45;;;;;;;13.10;100.00;102559.09;5072064;28;20027;-84
2022/08/09 03:44:56;;;;;;;8.73;6.50;;;;;;;13.08;99.80;102553.13;5071210;28;20032;-84
2022/08/09 03:47:21;;;;;;;8.57;6.30;;;;;;;13.11;99.95;102566.97;5071675;28;20028;-84
2022/08/09 03:49:49;;;;;;;10.33;6.93;;;;;;;13.05;100.00;102561.69;5067170;28;20093;-85
2022/08/09 03:52:17;;;;;;;9.70;6.32;;;;;;;13.05;100.00;102567.06;5070873;28;20063;-85
2022/08/09 03:54:43;;;;;;;7.50;5.78;;;;;;;13.03;99.45;102570.81;5062186;28;20021;-84
2022/08/09 03:57:11;;;;;;;10.95;6.43;;;;;;;12.98;99.72;102564.47;5071243;28;20032;-84
2022/08/09 03:59:37;;;;;;;7.00;5.88;;;;;;;12.94;99.43;102560.63;5071071;28;20028;-84
2022/08/09 04:02:03;;;;;;;9.50;6.20;;;;;;;12.93;99.24;102565.16;5071768;28;20029;-85
2022/08/09 04:04:30;;;;;;;8.40;6.20;;;;;;;12.92;100.00;102568.09;5072356;28;20479;-87
2022/08/09 04:06:56;;;;;;;8.70;6.07;;;;;;;12.88;99.73;102573.94;5044662;28;20128;-83
2022/08/09 04:09:23;;;;;;;12.88;5.80;;;;;;;12.85;99.56;102557.44;5063140;28;20036;-87
2022/08/09 04:12:02;;;;;;;8.50;6.18;;;;;;;12.84;99.69;102566.56;5071491;28;20036;-87
2022/08/09 04:14:28;;;;;;;9.48;5.93;;;;;;;12.85;99.23;102560.94;5069061;28;20032;-88
2022/08/09 04:16:53;;;;;;;10.07;5.80;;;;;;;12.79;99.54;102552.97;5072411;28;20035;-87
2022/08/09 04:19:18;;;;;;;8.70;5.90;;;;;;;12.81;99.33;102567.81;5072409;28;20031;-88
2022/08/09 04:21:45;;;;;;;8.37;5.77;;;;;;;12.76;99.07;102554.25;5063092;28;20028;-88
2022/08/09 04:24:10;;;;;;;8.55;6.20;;;;;;;12.82;99.25;102558.69;5062517;28;20035;-87
2022/08/09 04:26:35;;;;;;;10.02;5.93;;;;;;;12.83;99.17;102571.09;5076323;28;20025;-88
2022/08/09 04:29:01;;;;;;;7.30;6.10;;;;;;;12.82;99.28;102558.69;5063763;28;20032;-88
2022/08/09 04:31:26;;;;;;;7.60;5.60;;;;;;;12.86;99.93;102576.03;5075591;28;20024;-83
2022/08/09 04:33:51;;;;;;;10.77;6.30;;;;;;;12.85;100.00;102577.09;5073550;28;20086;-86
2022/08/09 04:36:17;;;;;;;9.63;6.77;;;;;;;12.83;100.00;102579.19;5082372;28;20033;-87
2022/08/09 04:38:42;;;;;;;10.23;6.13;;;;;;;12.91;100.00;102585.28;5084858;28;20112;-87
2022/08/09 04:41:08;;;;;;;6.73;6.03;;;;;;;12.96;100.00;102585.44;5078309;28;20112;-87
2022/08/09 04:43:33;;;;;;;10.53;5.93;;;;;;;12.96;100.00;102577.34;5070982;28;20024;-87
2022/08/09 04:46:00;;;;;;;11.65;6.60;;;;;;;12.95;100.00;102589.16;5072942;28;20025;-87
2022/08/09 04:48:27;;;;;;;11.88;6.75;;;;;;;13.01;100.00;102589.06;5066714;28;20025;-83
2022/08/09 04:50:52;;;;;;;10.25;6.55;;;;;;;13.01;100.00;102585.53;5063569;28;20028;-84
2022/08/09 04:53:18;;;;;;;11.30;7.10;;;;;;;13.02;100.00;102581.78;5067262;28;20635;-84
2022/08/09 04:55:43;;;;;;;11.83;6.80;;;;;;;13.01;100.00;102591.75;5068807;28;20036;-82
2022/08/09 04:58:09;;;;;;;10.48;6.72;;;;;;;13.11;100.00;102604.63;5069382;28;20559;-82
2022/08/09 05:00:34;;;;;;;11.70;7.50;;;;;;;13.11;100.00;102599.25;5070002;28;20692;-83
2022/08/09 05:03:03;;;;;;;14.93;7.90;;;;;;;13.16;100.00;102602.06;5066061;28;20468;-83
2022/08/09 05:05:29;;;;;;;12.20;7.03;;;;;;;13.20;100.00;102601.59;5053039;28;20279;-83
2022/08/09 05:07:54;;;;;;;11.32;7.80;;;;;;;13.20;100.00;102609.66;5051595;28;20662;-84
2022/08/09 05:10:20;;;;;;;12.93;7.63;;;;;;;13.18;100.00;102604.53;5059298;28;20487;-83
2022/08/09 05:12:45;;;;;;;12.98;6.93;;;;;;;13.23;100.00;102601.13;5060444;28;20056;-83
2022/08/09 05:15:11;;;;;;;13.57;8.10;;;;;;;13.30;100.00;102607.25;5051398;28;20044;-83
2022/08/09 05:17:37;;;;;;;12.60;8.27;;;;;;;13.30;100.00;102612.63;5064034;28;20365;-83
2022/08/09 05:25:14;;;;;;;15.80;7.68;;;;;;;14.43;99.80;102611.56;5894642;23;20044;-83
2022/08/09 05:27:39;;;;;;;7.95;6.60;;;;;;;15.31;95.30;102609.59;5064797;28;20074;-83
2022/08/09 05:30:05;;;;;;;12.80;7.23;;;;;;;16.12;90.42;102621.81;5063445;28;20064;-81
2022/08/09 05:32:30;;;;;;;11.07;6.78;;;;;;;16.64;87.35;102623.19;5066181;28;20518;-82
2022/08/09 05:34:56;;;;;;;9.27;6.73;;;;;;;17.01;84.79;102625.19;5068006;28;20453;-82
2022/08/09 05:37:21;;;;;;;8.83;6.93;;;;;;;17.15;84.00;102617.47;5070540;28;20036;-82
2022/08/09 05:39:46;;;;;;;8.93;6.20;;;;;;;17.22;83.14;102617.25;5069833;28;20021;-81
2022/08/09 05:42:14;;;;;;;8.17;6.27;;;;;;;17.08;83.28;102616.84;5069728;28;20390;-83
2022/08/09 05:44:39;;;;;;;11.80;6.90;;;;;;;16.78;83.96;102629.03;5070337;28;20391;-81
2022/08/09 05:47:04;;;;;;;9.27;6.43;;;;;;;16.54;85.64;102623.09;5069247;28;20282;-83
2022/08/09 05:49:30;;;;;;;12.53;6.20;;;;;;;16.39;86.54;102631.88;5067306;28;20036;-82
2022/08/09 05:51:55;;;;;;;9.57;7.03;;;;;;;16.17;87.49;102629.97;5067370;28;20028;-83
2022/08/09 05:54:20;;;;;;;9.80;6.23;;;;;;;15.98;88.49;102630.28;5067011;28;20479;-84
2022/08/09 05:56:45;;;;;;;13.10;7.20;;;;;;;15.90;89.45;102623.44;5058952;28;20033;-83
2022/08/09 05:59:11;;;;;;;9.50;6.97;;;;;;;15.87;90.67;102632.06;5057866;28;20459;-82
2022/08/09 06:01:37;;;;;;;8.00;6.68;;;;;;;15.83;91.01;102633.59;5068733;28;20037;-83
2022/08/09 06:04:02;;;;;;;9.43;7.20;;;;;;;15.79;91.41;102642.47;5069920;28;20115;-83
2022/08/09 06:06:28;;;;;;;10.10;7.20;;;;;;;15.74;90.98;102638.59;5069460;28;20103;-83
2022/08/09 06:08:53;;;;;;;9.80;6.67;;;;;;;15.79;91.83;102635.16;5063979;28;20029;-83
2022/08/09 06:11:19;;;;;;;9.83;7.60;;;;;;;15.70;92.34;102634.75;5062045;28;20033;-84
2022/08/09 06:13:44;;;;;;;11.10;7.78;;;;;;;15.77;92.24;102634.59;5049630;28;20032;-82
2022/08/09 06:16:10;;;;;;;15.33;7.97;;;;;;;15.74;93.21;102632.38;5054740;28;20024;-84
2022/08/09 06:18:36;;;;;;;11.30;8.10;;;;;;;15.81;92.99;102643.84;5068658;28;20063;-83
2022/08/09 06:21:03;;;;;;;12.90;8.13;;;;;;;15.85;92.67;102644.16;5068239;28;20773;-83
2022/08/09 06:23:30;;;;;;;14.90;8.07;;;;;;;15.94;93.02;102652.69;5069580;28;20444;-83
2022/08/09 06:25:56;;;;;;;14.38;7.72;;;;;;;16.03;92.24;102652.00;5067156;28;20085;-85
2022/08/09 06:28:22;;;;;;;16.48;8.05;;;;;;;16.07;92.47;102652.31;5068934;28;20039;-83
2022/08/09 06:30:47;;;;;;;11.23;7.63;;;;;;;16.15;92.49;102651.88;5066409;28;20025;-82
2022/08/09 06:33:12;;;;;;;13.53;7.93;;;;;;;16.24;91.26;102663.06;5069384;28;20048;-82
2022/08/09 06:35:38;;;;;;;12.32;7.78;;;;;;;16.37;91.45;102669.16;5069360;28;20020;-83
2022/08/09 06:38:03;;;;;;;10.63;7.60;;;;;;;16.43;90.87;102666.25;5068667;28;20028;-82
2022/08/09 06:40:29;;;;;;;11.00;7.90;;;;;;;16.47;91.28;102656.59;5057990;28;20036;-82
2022/08/09 06:42:54;;;;;;;11.30;7.87;;;;;;;16.54;90.46;102644.75;5063619;28;20059;-83
2022/08/09 06:45:19;;;;;;;10.27;7.60;;;;;;;16.72;89.93;102657.09;5068583;28;20024;-81
2022/08/09 06:47:47;;;;;;;12.40;7.30;;;;;;;16.84;89.61;102659.66;5049118;28;20025;-82
2022/08/09 06:50:13;;;;;;;12.38;8.02;;;;;;;16.95;88.68;102656.03;5048976;28;20036;-82
2022/08/09 06:52:44;;;;;;;12.05;7.50;;;;;;;17.07;87.85;102659.38;5059044;28;20032;-82
2022/08/09 06:55:10;;;;;;;15.50;7.30;;;;;;;17.09;87.86;102657.25;5049573;28;20071;-82
2022/08/09 06:57:35;;;;;;;13.77;7.80;;;;;;;17.35;86.88;102667.47;5051203;28;20036;-82
2022/08/09 07:00:00;;;;;;;12.13;7.60;;;;;;;17.50;85.98;102661.34;5065549;28;20024;-81
2022/08/09 07:02:26;;;;;;;12.40;7.22;;;;;;;17.63;86.11;102657.34;5071917;28;20039;-82
2022/08/09 07:04:51;;;;;;;10.03;7.30;;;;;;;17.77;84.81;102672.09;5073273;28;20029;-81
2022/08/09 07:07:16;;;;;;;10.13;7.07;;;;;;;17.96;84.53;102663.53;5073060;28;20056;-81
2022/08/09 07:09:43;;;;;;;11.50;7.20;;;;;;;17.99;83.48;102663.00;5071061;28;20043;-81
2022/08/09 07:12:09;;;;;;;13.27;7.10;;;;;;;18.10;81.90;102674.72;5072329;28;20094;-81
2022/08/09 07:14:34;;;;;;;12.15;7.45;;;;;;;18.13;81.90;102671.50;5071459;28;20029;-82
2022/08/09 07:17:01;;;;;;;11.00;6.90;;;;;;;18.22;81.30;102672.63;5073205;28;20612;-81
2022/08/09 07:19:27;;;;;;;12.40;6.93;;;;;;;18.33;81.37;102680.81;5071612;28;20032;-81
2022/08/09 07:21:52;;;;;;;10.13;6.70;;;;;;;18.44;80.69;102679.78;5072435;28;20042;-81
2022/08/09 07:24:17;;;;;;;11.07;6.47;;;;;;;18.54;79.85;102666.22;5072815;28;20166;-81
2022/08/09 07:26:43;;;;;;;10.52;7.18;;;;;;;18.72;79.88;102672.25;5063009;28;20147;-81
2022/08/09 07:29:08;;;;;;;9.07;6.67;;;;;;;18.79;79.44;102667.38;5060114;28;20064;-80
2022/08/09 07:31:33;;;;;;;8.80;6.73;;;;;;;18.94;78.22;102671.19;5062170;28;20020;-80
2022/08/09 07:33:59;;;;;;;12.87;6.27;;;;;;;19.02;77.43;102667.97;5080293;28;20032;-81
2022/08/09 07:36:24;;;;;;;8.90;5.97;;;;;;;19.12;77.05;102672.59;5074021;28;20052;-81
2022/08/09 07:38:49;;;;;;;9.53;6.13;;;;;;;19.22;76.03;102678.84;5074155;28;20533;-82
2022/08/09 07:41:15;;;;;;;11.32;6.07;;;;;;;19.41;76.59;102680.19;5071673;28;20025;-81
2022/08/09 07:43:40;;;;;;;15.87;6.10;;;;;;;19.51;74.63;102672.84;5067423;28;20037;-81
2022/08/09 07:46:07;;;;;;;11.13;6.97;;;;;;;19.58;73.63;102682.63;5072653;28;20043;-81
2022/08/09 07:48:32;;;;;;;8.63;5.47;;;;;;;19.65;73.43;102675.00;5070903;28;20020;-81
2022/08/09 07:50:59;;;;;;;8.87;5.43;;;;;;;19.74;72.98;102684.22;5072199;28;20051;-81
2022/08/09 07:53:24;;;;;;;9.27;5.35;;;;;;;19.76;72.16;102675.78;5072784;28;20542;-83
2022/08/09 07:55:49;;;;;;;12.93;5.27;;;;;;;19.93;72.38;102679.03;5067104;28;20033;-84
2022/08/09 07:58:15;;;;;;;7.77;5.43;;;;;;;20.00;71.31;102678.75;5061432;28;20032;-84
2022/08/09 08:00:41;;;;;;;9.00;5.20;;;;;;;20.13;71.47;102669.19;5057192;28;20020;-83
2022/08/09 08:03:07;;;;;;;11.00;5.50;;;;;;;20.18;70.88;102676.50;5070245;28;20064;-83
2022/08/09 08:05:32;;;;;;;12.27;5.40;;;;;;;20.20;70.30;102672.41;5063088;28;20472;-83
2022/08/09 08:07:58;;;;;;;6.72;4.78;;;;;;;20.37;69.77;102685.69;5068873;28;20036;-85
2022/08/09 08:10:23;;;;;;;8.50;4.83;;;;;;;20.44;68.25;102685.38;5069143;28;20031;-83
2022/08/09 08:12:48;;;;;;;8.80;4.67;;;;;;;20.59;67.95;102692.66;5071037;28;20032;-83
2022/08/09 08:15:18;;;;;;;10.47;5.20;;;;;;;20.66;67.13;102695.84;5072100;28;20029;-83
2022/08/09 08:17:50;;;;;;;6.65;4.60;;;;;;;20.76;67.13;102695.00;5070733;28;20158;-82
2022/08/09 08:20:17;;;;;;;6.70;4.40;;;;;;;20.85;67.15;102693.34;5054429;28;20017;-83
2022/08/09 08:22:43;;;;;;;6.60;3.53;;;;;;;20.95;66.14;102689.72;5052108;28;20480;-83
2022/08/09 08:25:09;;;;;;;6.47;4.22;;;;;;;21.03;65.62;102686.38;5070996;28;20033;-83
2022/08/09 08:27:36;;;;;;;7.07;4.80;;;;;;;21.03;66.08;102685.59;5071434;28;20082;-83
2022/08/09 08:30:02;;;;;;;6.97;5.05;;;;;;;21.10;65.62;102690.72;5071261;28;20024;-83
2022/08/09 08:32:29;;;;;;;11.55;4.15;;;;;;;21.18;66.06;102671.81;5053578;28;20480;-83
2022/08/09 08:34:56;;;;;;;8.77;3.97;;;;;;;21.39;64.15;102673.53;5046032;28;20025;-82
2022/08/09 08:37:21;;;;;;;9.25;4.10;;;;;;;21.42;62.58;102681.16;5061712;28;20039;-82
2022/08/09 08:39:47;;;;;;;9.17;4.00;;;;;;;21.44;61.58;102674.34;5052477;28;20448;-83
2022/08/09 08:42:13;;;;;;;4.75;3.42;;;;;;;21.61;61.22;102684.81;5070899;28;20063;-82
2022/08/09 08:44:40;;;;;;;9.87;3.67;;;;;;;21.73;61.87;102687.16;5066347;28;20032;-85
2022/08/09 08:47:08;;;;;;;6.07;3.72;;;;;;;21.87;59.87;102695.47;5064128;28;20141;-83
2022/08/09 08:49:37;;;;;;;6.57;3.20;;;;;;;21.91;59.85;102693.78;5070203;28;20032;-83
2022/08/09 08:52:03;;;;;;;8.73;3.60;;;;;;;21.89;60.02;102682.34;5044104;28;20023;-83
2022/08/09 08:54:28;;;;;;;8.68;3.58;;;;;;;21.97;59.77;102683.63;5069677;28;20123;-83
2022/08/09 08:56:55;;;;;;;6.53;2.70;;;;;;;22.06;58.70;102678.34;5071095;28;20029;-83
2022/08/09 08:59:20;;;;;;;6.10;3.20;;;;;;;22.11;58.16;102686.44;5071441;28;20028;-83
2022/08/09 09:01:48;;;;;;;9.27;3.07;;;;;;;22.11;58.24;102691.09;5070276;28;20021;-83
2022/08/09 09:25:28;;;;;;;3.72;2.47;;;;;;;23.14;53.75;102706.06;5933951;23;20394;-84
2022/08/09 09:27:55;;;;;;;7.33;2.80;;;;;;;23.11;54.08;102712.94;5012551;28;20116;-84
2022/08/09 09:30:21;;;;;;;5.80;2.70;;;;;;;23.07;53.16;102705.66;5028138;28;20306;-83
2022/08/09 09:33:03;;;;;;;5.60;2.17;;;;;;;23.19;54.44;102714.19;5028291;28;20041;-84
2022/08/09 09:35:29;;;;;;;4.22;2.42;;;;;;;23.26;53.60;102703.72;5029655;28;20390;-84
2022/08/09 09:37:54;;;;;;;4.00;1.97;;;;;;;23.38;53.15;102700.50;5030109;28;20033;-83
2022/08/09 09:40:19;;;;;;;6.87;2.40;;;;;;;23.45;52.15;102702.84;5029871;28;20021;-83
2022/08/09 09:42:55;;;;;;;5.20;2.13;;;;;;;23.58;52.28;102693.03;5028814;28;20033;-83
2022/08/09 09:45:22;;;;;;;7.47;2.10;;;;;;;23.66;52.36;102695.06;5029005;28;20572;-84
2022/08/09 09:47:48;;;;;;;4.53;2.10;;;;;;;23.74;51.72;102696.31;5029742;28;20033;-84
2022/08/09 09:50:13;;;;;;;2.92;2.10;;;;;;;23.86;51.82;102696.59;5030312;28;20029;-84
2022/08/09 09:52:52;;;;;;;3.93;2.20;;;;;;;23.92;51.35;102707.47;5028767;28;20448;-84
2022/08/09 09:55:18;;;;;;;4.72;1.90;;;;;;;23.90;50.65;102694.88;5030021;28;20063;-83
2022/08/09 09:57:57;;;;;;;4.87;1.90;;;;;;;23.94;51.19;102694.28;5029351;28;20057;-84
2022/08/09 10:00:23;;;;;;;7.07;2.03;;;;;;;24.23;50.50;102695.91;5028360;28;20035;-83
2022/08/09 10:02:48;;;;;;;5.07;1.83;;;;;;;24.33;50.09;102698.44;5028157;28;20052;-83
2022/08/09 10:05:14;;;;;;;4.23;1.60;;;;;;;24.56;48.68;102696.56;5011796;28;20550;-83
2022/08/09 10:07:39;;;;;;;3.93;1.70;;;;;;;24.50;47.91;102693.13;5028807;28;20057;-84
2022/08/09 10:10:06;;;;;;;3.23;1.57;;;;;;;24.60;47.96;102697.56;5028809;28;20033;-84
2022/08/09 10:12:37;;;;;;;3.92;1.63;;;;;;;24.75;48.27;102701.88;5009688;28;20033;-84
2022/08/09 10:15:14;;;;;;;5.75;1.45;;;;;;;24.93;48.57;102689.13;5030152;28;20028;-84
2022/08/09 10:17:44;;;;;;;2.30;1.90;;;;;;;25.00;47.21;102699.66;5029158;28;20072;-85
2022/08/09 10:20:22;;;;;;;3.38;1.60;;;;;;;25.05;46.12;102698.72;5029310;28;20029;-84
2022/08/09 10:22:49;;;;;;;2.60;1.52;;;;;;;25.02;45.88;102694.69;5028660;28;20041;-85
2022/08/09 10:25:15;;;;;;;6.70;1.50;;;;;;;25.09;44.44;102688.75;5038976;28;20049;-84
2022/08/09 10:27:45;;;;;;;3.67;1.33;;;;;;;25.22;45.46;102690.59;5036911;28;20306;-85
2022/08/09 10:30:11;;;;;;;5.57;1.80;;;;;;;25.28;44.58;102695.97;5037119;28;20493;-84
2022/08/09 10:32:38;;;;;;;3.67;1.35;;;;;;;25.25;44.06;102687.25;5015210;28;20624;-85
2022/08/09 10:35:04;;;;;;;3.67;1.50;;;;;;;25.26;44.47;102690.81;5033745;28;20040;-84
2022/08/09 10:37:30;;;;;;;2.22;1.40;;;;;;;25.24;43.85;102684.81;5016593;28;20017;-84
2022/08/09 10:39:57;;;;;;;2.90;1.70;;;;;;;25.17;43.96;102679.78;5033531;28;20029;-83
2022/08/09 10:42:22;;;;;;;4.45;1.30;;;;;;;25.31;43.70;102684.38;5031762;28;20021;-84
2022/08/09 10:44:55;;;;;;;1.80;1.30;;;;;;;25.29;41.40;102681.13;5033493;28;20076;-84
2022/08/09 10:47:38;;;;;;;3.75;1.33;;;;;;;25.46;43.10;102677.72;5032769;28;20037;-83
2022/08/09 10:50:27;;;;;;;2.63;1.30;;;;;;;25.51;43.74;102677.56;5032451;28;21890;-84
2022/08/09 10:53:04;;;;;;;7.38;1.48;;;;;;;25.57;43.48;102669.97;5032951;28;20115;-84
2022/08/09 10:55:31;;;;;;;3.45;1.45;;;;;;;25.58;42.75;102674.34;5015130;28;20401;-84
2022/08/09 10:57:57;;;;;;;5.35;1.58;;;;;;;25.58;43.38;102666.13;5032404;28;20017;-84
2022/08/09 11:00:28;;;;;;;4.10;1.30;;;;;;;25.73;42.89;102673.13;5031949;28;20112;-85
2022/08/09 11:02:54;;;;;;;3.25;1.50;;;;;;;25.64;42.11;102667.59;5010067;28;20045;-85
2022/08/09 11:05:21;;;;;;;1.58;1.20;;;;;;;25.77;42.29;102663.94;5033008;28;20045;-85
2022/08/09 11:07:53;;;;;;;3.27;1.00;;;;;;;25.93;40.99;102669.00;5004203;28;20056;-84
2022/08/09 11:10:40;;;;;;;2.73;1.30;;;;;;;26.03;42.62;102676.94;5015387;28;20795;-86
2022/08/09 11:13:16;;;;;;;3.33;1.75;;;;;;;26.17;41.98;102676.00;5030282;28;20480;-84
2022/08/09 11:15:41;;;;;;;4.18;1.50;;;;;;;26.22;40.48;102668.41;5031744;28;20028;-84
2022/08/09 11:18:11;;;;;;;2.90;1.60;;;;;;;26.22;41.71;102670.38;5032424;28;20362;-83
2022/08/09 11:20:47;;;;;;;4.15;1.60;;;;;;;26.32;41.18;102667.28;5031745;28;20026;-83
2022/08/09 11:23:14;;;;;;;2.00;1.20;;;;;;;26.47;41.07;102668.78;5031210;28;20058;-84
2022/08/09 11:25:42;;;;;;;4.03;1.57;;;;;;;26.48;41.24;102675.88;5031864;28;20292;-85
2022/08/09 11:28:26;;;;;;;6.88;1.50;;;;;;;26.54;41.13;102666.34;5029548;28;20085;-85
2022/08/09 11:30:51;;;;;;;2.63;1.50;;;;;;;26.52;40.30;102654.06;5031974;28;20034;-84
2022/08/09 11:33:17;;;;;;;4.03;1.57;;;;;;;26.54;40.38;102660.03;5030712;28;20552;-84
2022/08/09 11:35:57;;;;;;;3.07;1.40;;;;;;;26.66;39.98;102660.19;5031744;28;20032;-84
2022/08/09 11:38:34;;;;;;;5.17;1.57;;;;;;;26.49;39.64;102649.19;5031249;28;20755;-85
2022/08/09 11:41:09;;;;;;;3.63;1.80;;;;;;;26.51;40.54;102652.44;5021685;28;20029;-83
2022/08/09 11:43:34;;;;;;;2.80;1.20;;;;;;;26.73;40.26;102651.47;5032010;28;20029;-83
2022/08/09 11:46:01;;;;;;;3.93;1.53;;;;;;;26.89;39.47;102640.78;5031359;28;20032;-83
2022/08/09 11:48:29;;;;;;;3.15;1.58;;;;;;;27.10;39.08;102634.59;5031215;28;20026;-83
2022/08/09 11:50:57;;;;;;;1.55;1.23;;;;;;;27.27;39.19;102647.50;5031794;28;20017;-83